sensor_id;sensor_type;location;lat;lon;timestamp;pressure;altitude;pressure_sealevel;temperature;humidity
70217;BME280;65567;55.684;37.570;2023-04-02T00:02:30;98526.59;;;10.00;62.52
70217;BME280;65567;55.684;37.570;2023-04-02T00:08:45;98532.41;;;10.19;61.86
70217;BME280;65567;55.684;37.570;2023-04-02T00:11:30;98533.09;;;10.37;61.07
70217;BME280;65567;55.684;37.570;2023-04-02T00:14:00;98535.31;;;10.29;61.40
70217;BME280;65567;55.684;37.570;2023-04-02T00:16:27;98541.00;;;10.07;62.12
70217;BME280;65567;55.684;37.570;2023-04-02T00:18:57;98543.97;;;10.01;62.49
70217;BME280;65567;55.684;37.570;2023-04-02T00:21:31;98550.13;;;9.85;63.26
70217;BME280;65567;55.684;37.570;2023-04-02T00:24:01;98550.25;;;9.98;62.99
70217;BME280;65567;55.684;37.570;2023-04-02T00:26:38;98550.56;;;10.22;61.93
70217;BME280;65567;55.684;37.570;2023-04-02T00:29:10;98558.19;;;9.97;62.93
70217;BME280;65567;55.684;37.570;2023-04-02T00:31:43;98552.75;;;10.00;62.71
70217;BME280;65567;55.684;37.570;2023-04-02T00:34:20;98561.50;;;9.84;63.06
70217;BME280;65567;55.684;37.570;2023-04-02T00:36:47;98553.75;;;9.83;63.76
70217;BME280;65567;55.684;37.570;2023-04-02T00:39:37;98556.28;;;9.84;63.39
70217;BME280;65567;55.684;37.570;2023-04-02T00:42:06;98553.63;;;9.70;63.80
70217;BME280;65567;55.684;37.570;2023-04-02T00:44:36;98558.66;;;9.58;64.49
70217;BME280;65567;55.684;37.570;2023-04-02T00:47:14;98553.66;;;9.84;63.88
70217;BME280;65567;55.684;37.570;2023-04-02T00:49:42;98559.41;;;9.61;64.62
70217;BME280;65567;55.684;37.570;2023-04-02T00:52:11;98563.97;;;9.87;63.57
70217;BME280;65567;55.684;37.570;2023-04-02T00:54:42;98566.00;;;9.82;63.59
70217;BME280;65567;55.684;37.570;2023-04-02T00:57:21;98569.34;;;9.84;63.93
70217;BME280;65567;55.684;37.570;2023-04-02T00:59:58;98567.16;;;9.92;63.56
70217;BME280;65567;55.684;37.570;2023-04-02T01:02:27;98567.44;;;9.57;64.97
70217;BME280;65567;55.684;37.570;2023-04-02T01:04:54;98562.94;;;9.59;64.95
70217;BME280;65567;55.684;37.570;2023-04-02T01:07:40;98562.84;;;9.91;63.70
70217;BME280;65567;55.684;37.570;2023-04-02T01:16:23;98565.94;;;9.98;63.76
70217;BME280;65567;55.684;37.570;2023-04-02T01:21:55;98560.09;;;9.79;64.29
70217;BME280;65567;55.684;37.570;2023-04-02T01:24:29;98558.47;;;10.06;63.56
70217;BME280;65567;55.684;37.570;2023-04-02T01:29:59;98564.09;;;10.15;63.39
70217;BME280;65567;55.684;37.570;2023-04-02T01:32:27;98565.09;;;9.98;63.45
70217;BME280;65567;55.684;37.570;2023-04-02T01:34:55;98562.50;;;10.12;63.12
70217;BME280;65567;55.684;37.570;2023-04-02T01:43:32;98551.25;;;10.40;61.87
70217;BME280;65567;55.684;37.570;2023-04-02T01:46:05;98558.53;;;10.35;62.54
70217;BME280;65567;55.684;37.570;2023-04-02T01:48:48;98554.91;;;10.38;62.48
70217;BME280;65567;55.684;37.570;2023-04-02T01:51:27;98552.88;;;10.13;62.77
70217;BME280;65567;55.684;37.570;2023-04-02T01:53:53;98542.88;;;10.19;62.90
70217;BME280;65567;55.684;37.570;2023-04-02T01:56:20;98550.72;;;10.34;62.58
70217;BME280;65567;55.684;37.570;2023-04-02T01:58:47;98560.72;;;10.27;62.31
70217;BME280;65567;55.684;37.570;2023-04-02T02:01:27;98558.69;;;10.32;62.44
70217;BME280;65567;55.684;37.570;2023-04-02T02:03:56;98557.84;;;10.32;62.38
70217;BME280;65567;55.684;37.570;2023-04-02T02:06:22;98566.84;;;10.28;62.57
70217;BME280;65567;55.684;37.570;2023-04-02T02:08:53;98566.56;;;10.47;61.96
70217;BME280;65567;55.684;37.570;2023-04-02T02:11:23;98563.44;;;10.25;62.51
70217;BME280;65567;55.684;37.570;2023-04-02T02:13:55;98546.44;;;10.33;62.11
70217;BME280;65567;55.684;37.570;2023-04-02T02:16:22;98560.31;;;10.49;61.62
70217;BME280;65567;55.684;37.570;2023-04-02T02:18:51;98554.91;;;10.52;61.29
70217;BME280;65567;55.684;37.570;2023-04-02T02:21:39;98557.31;;;10.55;61.10
70217;BME280;65567;55.684;37.570;2023-04-02T02:24:16;98556.94;;;10.47;61.39
70217;BME280;65567;55.684;37.570;2023-04-02T02:26:46;98567.88;;;10.54;61.41
70217;BME280;65567;55.684;37.570;2023-04-02T02:29:16;98567.44;;;10.47;61.54
70217;BME280;65567;55.684;37.570;2023-04-02T02:31:45;98568.91;;;10.51;61.24
70217;BME280;65567;55.684;37.570;2023-04-02T02:34:20;98578.53;;;10.36;61.79
70217;BME280;65567;55.684;37.570;2023-04-02T02:36:52;98565.84;;;10.45;61.31
70217;BME280;65567;55.684;37.570;2023-04-02T02:39:25;98575.28;;;10.62;60.83
70217;BME280;65567;55.684;37.570;2023-04-02T02:42:00;98574.97;;;10.52;61.04
70217;BME280;65567;55.684;37.570;2023-04-02T02:44:30;98573.72;;;10.29;61.83
70217;BME280;65567;55.684;37.570;2023-04-02T02:47:01;98579.09;;;10.41;61.62
70217;BME280;65567;55.684;37.570;2023-04-02T02:49:35;98578.00;;;10.60;60.94
70217;BME280;65567;55.684;37.570;2023-04-02T02:52:17;98579.19;;;10.69;60.38
70217;BME280;65567;55.684;37.570;2023-04-02T02:55:05;98575.28;;;10.62;60.37
70217;BME280;65567;55.684;37.570;2023-04-02T02:57:51;98577.03;;;10.61;60.69
70217;BME280;65567;55.684;37.570;2023-04-02T03:00:19;98571.72;;;10.77;60.16
70217;BME280;65567;55.684;37.570;2023-04-02T03:02:46;98571.16;;;10.57;60.88
70217;BME280;65567;55.684;37.570;2023-04-02T03:05:19;98576.56;;;10.54;60.80
70217;BME280;65567;55.684;37.570;2023-04-02T03:07:46;98581.16;;;10.65;60.25
70217;BME280;65567;55.684;37.570;2023-04-02T03:10:47;98590.28;;;10.87;59.99
70217;BME280;65567;55.684;37.570;2023-04-02T03:13:31;98584.44;;;10.54;60.75
70217;BME280;65567;55.684;37.570;2023-04-02T03:18:41;98591.91;;;10.46;60.89
70217;BME280;65567;55.684;37.570;2023-04-02T03:21:29;98598.72;;;10.34;61.11
70217;BME280;65567;55.684;37.570;2023-04-02T03:24:02;98593.97;;;10.55;60.76
70217;BME280;65567;55.684;37.570;2023-04-02T03:26:48;98598.66;;;10.50;60.56
70217;BME280;65567;55.684;37.570;2023-04-02T03:29:21;98598.84;;;10.47;60.94
70217;BME280;65567;55.684;37.570;2023-04-02T03:34:32;98596.75;;;10.23;61.29
70217;BME280;65567;55.684;37.570;2023-04-02T03:39:43;98600.84;;;10.28;60.92
70217;BME280;65567;55.684;37.570;2023-04-02T03:42:22;98594.75;;;10.57;60.26
70217;BME280;65567;55.684;37.570;2023-04-02T03:45:23;98598.09;;;10.45;60.37
70217;BME280;65567;55.684;37.570;2023-04-02T03:47:55;98606.66;;;10.33;60.72
70217;BME280;65567;55.684;37.570;2023-04-02T03:52:54;98607.44;;;10.04;61.75
70217;BME280;65567;55.684;37.570;2023-04-02T03:55:24;98606.66;;;10.18;60.92
70217;BME280;65567;55.684;37.570;2023-04-02T04:03:40;98602.50;;;10.59;59.33
70217;BME280;65567;55.684;37.570;2023-04-02T04:06:25;98596.84;;;10.36;59.87
70217;BME280;65567;55.684;37.570;2023-04-02T04:08:58;98589.66;;;10.54;59.41
70217;BME280;65567;55.684;37.570;2023-04-02T04:11:33;98586.69;;;10.61;59.06
70217;BME280;65567;55.684;37.570;2023-04-02T04:14:16;98599.59;;;10.78;58.33
70217;BME280;65567;55.684;37.570;2023-04-02T04:19:38;98608.53;;;10.88;57.82
70217;BME280;65567;55.684;37.570;2023-04-02T04:22:17;98613.09;;;11.14;57.48
70217;BME280;65567;55.684;37.570;2023-04-02T04:24:47;98615.09;;;10.96;57.70
70217;BME280;65567;55.684;37.570;2023-04-02T04:27:20;98616.41;;;10.74;58.31
70217;BME280;65567;55.684;37.570;2023-04-02T04:30:03;98625.88;;;10.62;58.45
70217;BME280;65567;55.684;37.570;2023-04-02T04:32:44;98614.94;;;10.55;58.59
70217;BME280;65567;55.684;37.570;2023-04-02T04:35:32;98625.03;;;10.90;57.46
70217;BME280;65567;55.684;37.570;2023-04-02T04:41:14;98629.97;;;10.66;57.81
70217;BME280;65567;55.684;37.570;2023-04-02T04:46:39;98628.94;;;10.54;58.52
70217;BME280;65567;55.684;37.570;2023-04-02T04:49:41;98637.00;;;10.80;57.62
70217;BME280;65567;55.684;37.570;2023-04-02T04:54:48;98637.56;;;10.71;57.88
70217;BME280;65567;55.684;37.570;2023-04-02T04:57:33;98644.88;;;10.66;57.84
70217;BME280;65567;55.684;37.570;2023-04-02T05:00:13;98648.41;;;10.65;58.17
70217;BME280;65567;55.684;37.570;2023-04-02T05:02:53;98632.69;;;10.36;58.70
70217;BME280;65567;55.684;37.570;2023-04-02T05:05:26;98633.06;;;10.44;58.58
70217;BME280;65567;55.684;37.570;2023-04-02T05:08:25;98640.84;;;10.60;58.24
70217;BME280;65567;55.684;37.570;2023-04-02T05:10:57;98643.22;;;10.04;59.48
70217;BME280;65567;55.684;37.570;2023-04-02T05:13:36;98642.84;;;10.26;59.06
70217;BME280;65567;55.684;37.570;2023-04-02T05:16:25;98644.47;;;10.43;58.52
70217;BME280;65567;55.684;37.570;2023-04-02T05:19:06;98641.88;;;10.57;57.79
70217;BME280;65567;55.684;37.570;2023-04-02T05:21:43;98638.13;;;10.31;58.58
70217;BME280;65567;55.684;37.570;2023-04-02T05:24:39;98659.31;;;9.82;59.99
70217;BME280;65567;55.684;37.570;2023-04-02T05:27:32;98648.19;;;10.39;58.35
70217;BME280;65567;55.684;37.570;2023-04-02T05:30:11;98658.75;;;10.07;59.33
70217;BME280;65567;55.684;37.570;2023-04-02T05:32:50;98656.63;;;10.14;58.95
70217;BME280;65567;55.684;37.570;2023-04-02T05:35:19;98658.31;;;10.15;59.04
70217;BME280;65567;55.684;37.570;2023-04-02T05:37:48;98663.91;;;10.08;59.22
70217;BME280;65567;55.684;37.570;2023-04-02T05:40:21;98655.47;;;10.03;59.25
70217;BME280;65567;55.684;37.570;2023-04-02T05:42:49;98657.47;;;10.14;59.41
70217;BME280;65567;55.684;37.570;2023-04-02T05:47:56;98664.28;;;10.17;59.39
70217;BME280;65567;55.684;37.570;2023-04-02T05:50:32;98666.09;;;10.31;58.92
70217;BME280;65567;55.684;37.570;2023-04-02T05:53:21;98666.25;;;10.44;58.44
70217;BME280;65567;55.684;37.570;2023-04-02T05:55:57;98657.75;;;10.40;58.44
70217;BME280;65567;55.684;37.570;2023-04-02T05:58:32;98666.78;;;10.34;58.57
70217;BME280;65567;55.684;37.570;2023-04-02T06:01:12;98668.34;;;10.22;58.56
70217;BME280;65567;55.684;37.570;2023-04-02T06:06:57;98666.38;;;10.56;57.92
70217;BME280;65567;55.684;37.570;2023-04-02T06:09:39;98662.00;;;10.27;58.67
70217;BME280;65567;55.684;37.570;2023-04-02T06:12:21;98672.56;;;10.25;58.52
70217;BME280;65567;55.684;37.570;2023-04-02T06:14:49;98668.16;;;10.25;59.04
70217;BME280;65567;55.684;37.570;2023-04-02T06:17:17;98672.66;;;10.68;57.66
70217;BME280;65567;55.684;37.570;2023-04-02T06:19:43;98662.38;;;10.80;57.63
70217;BME280;65567;55.684;37.570;2023-04-02T06:22:33;98661.94;;;10.43;58.39
70217;BME280;65567;55.684;37.570;2023-04-02T06:25:05;98657.41;;;10.75;57.37
70217;BME280;65567;55.684;37.570;2023-04-02T06:27:34;98669.38;;;10.65;57.88
70217;BME280;65567;55.684;37.570;2023-04-02T06:30:04;98660.66;;;11.07;56.83
70217;BME280;65567;55.684;37.570;2023-04-02T06:32:34;98663.53;;;11.32;55.85
70217;BME280;65567;55.684;37.570;2023-04-02T06:35:00;98663.56;;;11.17;56.19
70217;BME280;65567;55.684;37.570;2023-04-02T06:37:32;98663.25;;;11.22;56.14
70217;BME280;65567;55.684;37.570;2023-04-02T06:40:01;98662.75;;;11.44;55.54
70217;BME280;65567;55.684;37.570;2023-04-02T06:42:39;98665.31;;;11.58;54.70
70217;BME280;65567;55.684;37.570;2023-04-02T06:45:29;98653.06;;;11.86;54.04
70217;BME280;65567;55.684;37.570;2023-04-02T06:47:57;98667.00;;;12.14;53.34
70217;BME280;65567;55.684;37.570;2023-04-02T06:50:29;98658.63;;;12.22;53.00
70217;BME280;65567;55.684;37.570;2023-04-02T06:53:00;98665.69;;;12.34;52.74
70217;BME280;65567;55.684;37.570;2023-04-02T06:58:15;98671.41;;;12.01;53.02
70217;BME280;65567;55.684;37.570;2023-04-02T07:00:49;98669.47;;;11.90;53.01
70217;BME280;65567;55.684;37.570;2023-04-02T07:03:20;98668.69;;;12.15;52.89
70217;BME280;65567;55.684;37.570;2023-04-02T07:05:47;98668.59;;;12.17;52.71
70217;BME280;65567;55.684;37.570;2023-04-02T07:08:13;98674.28;;;12.36;52.16
70217;BME280;65567;55.684;37.570;2023-04-02T07:10:39;98671.06;;;12.59;55.68
70217;BME280;65567;55.684;37.570;2023-04-02T07:13:05;98662.34;;;12.71;52.21
70217;BME280;65567;55.684;37.570;2023-04-02T07:15:32;98676.19;;;12.21;52.37
70217;BME280;65567;55.684;37.570;2023-04-02T07:17:59;98676.72;;;12.27;51.92
70217;BME280;65567;55.684;37.570;2023-04-02T07:20:34;98679.44;;;12.38;51.65
70217;BME280;65567;55.684;37.570;2023-04-02T07:23:03;98686.63;;;12.62;50.97
70217;BME280;65567;55.684;37.570;2023-04-02T07:25:29;98681.44;;;12.34;51.47
70217;BME280;65567;55.684;37.570;2023-04-02T07:27:55;98686.88;;;12.31;51.01
70217;BME280;65567;55.684;37.570;2023-04-02T07:30:21;98698.72;;;12.11;51.48
70217;BME280;65567;55.684;37.570;2023-04-02T07:32:48;98695.13;;;11.99;52.29
70217;BME280;65567;55.684;37.570;2023-04-02T07:35:13;98700.97;;;11.76;52.35
70217;BME280;65567;55.684;37.570;2023-04-02T07:37:39;98692.28;;;11.33;53.45
70217;BME280;65567;55.684;37.570;2023-04-02T07:40:10;98690.47;;;11.48;53.19
70217;BME280;65567;55.684;37.570;2023-04-02T07:42:40;98688.31;;;11.82;52.41
70217;BME280;65567;55.684;37.570;2023-04-02T07:45:06;98691.78;;;12.10;51.86
70217;BME280;65567;55.684;37.570;2023-04-02T07:47:33;98698.44;;;12.29;51.29
70217;BME280;65567;55.684;37.570;2023-04-02T07:49:59;98692.88;;;12.20;51.46
70217;BME280;65567;55.684;37.570;2023-04-02T07:52:25;98700.31;;;11.86;52.21
70217;BME280;65567;55.684;37.570;2023-04-02T07:54:51;98700.63;;;11.67;52.54
70217;BME280;65567;55.684;37.570;2023-04-02T07:57:17;98705.38;;;11.48;52.94
70217;BME280;65567;55.684;37.570;2023-04-02T07:59:42;98703.47;;;11.92;51.91
70217;BME280;65567;55.684;37.570;2023-04-02T08:02:19;98694.91;;;12.02;51.72
70217;BME280;65567;55.684;37.570;2023-04-02T08:04:49;98708.59;;;11.66;52.89
70217;BME280;65567;55.684;37.570;2023-04-02T08:07:17;98700.69;;;11.80;52.42
70217;BME280;65567;55.684;37.570;2023-04-02T08:09:43;98713.09;;;11.64;52.73
70217;BME280;65567;55.684;37.570;2023-04-02T08:12:13;98710.09;;;11.70;52.58
70217;BME280;65567;55.684;37.570;2023-04-02T08:14:41;98715.78;;;11.77;52.41
70217;BME280;65567;55.684;37.570;2023-04-02T08:17:07;98723.63;;;11.49;53.00
70217;BME280;65567;55.684;37.570;2023-04-02T08:19:32;98714.00;;;11.21;54.16
70217;BME280;65567;55.684;37.570;2023-04-02T08:21:59;98709.25;;;11.28;54.18
70217;BME280;65567;55.684;37.570;2023-04-02T08:24:25;98712.59;;;11.30;54.14
70217;BME280;65567;55.684;37.570;2023-04-02T08:26:51;98712.03;;;11.39;53.86
70217;BME280;65567;55.684;37.570;2023-04-02T08:29:18;98711.66;;;11.45;53.58
70217;BME280;65567;55.684;37.570;2023-04-02T08:31:44;98717.16;;;11.55;53.51
70217;BME280;65567;55.684;37.570;2023-04-02T08:34:10;98720.06;;;11.50;53.56
70217;BME280;65567;55.684;37.570;2023-04-02T08:36:37;98740.75;;;11.69;52.92
70217;BME280;65567;55.684;37.570;2023-04-02T08:39:05;98720.19;;;11.34;53.93
70217;BME280;65567;55.684;37.570;2023-04-02T08:41:38;98723.38;;;11.39;54.16
70217;BME280;65567;55.684;37.570;2023-04-02T08:46:47;98717.00;;;11.29;54.15
70217;BME280;65567;55.684;37.570;2023-04-02T08:49:34;98721.22;;;11.32;54.42
70217;BME280;65567;55.684;37.570;2023-04-02T08:52:02;98724.97;;;11.28;54.66
70217;BME280;65567;55.684;37.570;2023-04-02T08:54:34;98716.00;;;11.17;54.99
70217;BME280;65567;55.684;37.570;2023-04-02T09:00:24;98710.47;;;11.64;53.53
70217;BME280;65567;55.684;37.570;2023-04-02T09:02:57;98715.16;;;11.73;53.40
70217;BME280;65567;55.684;37.570;2023-04-02T09:05:31;98721.81;;;11.64;54.04
70217;BME280;65567;55.684;37.570;2023-04-02T09:08:00;98728.56;;;11.68;53.60
70217;BME280;65567;55.684;37.570;2023-04-02T09:10:37;98712.75;;;11.55;54.06
70217;BME280;65567;55.684;37.570;2023-04-02T09:13:15;98717.25;;;11.53;54.45
70217;BME280;65567;55.684;37.570;2023-04-02T09:15:42;98717.53;;;11.49;54.33
70217;BME280;65567;55.684;37.570;2023-04-02T09:18:18;98722.78;;;11.90;53.44
70217;BME280;65567;55.684;37.570;2023-04-02T09:20:45;98729.72;;;11.92;53.53
70217;BME280;65567;55.684;37.570;2023-04-02T09:23:23;98712.69;;;11.43;54.74
70217;BME280;65567;55.684;37.570;2023-04-02T09:25:52;98708.09;;;11.46;54.90
70217;BME280;65567;55.684;37.570;2023-04-02T09:28:19;98710.88;;;11.57;54.76
70217;BME280;65567;55.684;37.570;2023-04-02T09:33:17;98715.78;;;11.35;55.12
70217;BME280;65567;55.684;37.570;2023-04-02T09:38:21;98722.97;;;11.60;54.82
70217;BME280;65567;55.684;37.570;2023-04-02T09:40:53;98724.56;;;11.48;55.25
70217;BME280;65567;55.684;37.570;2023-04-02T09:43:27;98727.84;;;11.52;55.10
70217;BME280;65567;55.684;37.570;2023-04-02T09:46:23;98731.91;;;11.43;55.00
70217;BME280;65567;55.684;37.570;2023-04-02T09:48:53;98728.06;;;11.76;54.33
70217;BME280;65567;55.684;37.570;2023-04-02T09:51:22;98724.47;;;11.50;55.06
70217;BME280;65567;55.684;37.570;2023-04-02T09:56:31;98723.00;;;11.87;54.24
70217;BME280;65567;55.684;37.570;2023-04-02T09:59:14;98730.22;;;12.11;54.01
70217;BME280;65567;55.684;37.570;2023-04-02T10:01:43;98721.44;;;12.12;53.44
70217;BME280;65567;55.684;37.570;2023-04-02T10:04:41;98723.91;;;12.01;53.84
70217;BME280;65567;55.684;37.570;2023-04-02T10:07:38;98727.09;;;11.92;54.42
70217;BME280;65567;55.684;37.570;2023-04-02T10:12:56;98727.28;;;12.16;53.44
70217;BME280;65567;55.684;37.570;2023-04-02T10:15:38;98722.84;;;12.03;54.00
70217;BME280;65567;55.684;37.570;2023-04-02T10:20:56;98729.22;;;12.27;53.42
70217;BME280;65567;55.684;37.570;2023-04-02T10:23:27;98729.63;;;12.20;53.38
70217;BME280;65567;55.684;37.570;2023-04-02T10:34:15;98721.72;;;12.61;52.51
70217;BME280;65567;55.684;37.570;2023-04-02T10:36:53;98727.78;;;12.48;52.66
70217;BME280;65567;55.684;37.570;2023-04-02T10:39:37;98738.88;;;13.05;51.29
70217;BME280;65567;55.684;37.570;2023-04-02T10:42:30;98715.09;;;12.94;51.71
70217;BME280;65567;55.684;37.570;2023-04-02T10:45:45;98720.22;;;13.21;50.89
70217;BME280;65567;55.684;37.570;2023-04-02T10:48:03;98718.75;;;13.55;50.23
70217;BME280;65567;55.684;37.570;2023-04-02T10:50:43;98707.94;;;13.47;50.28
70217;BME280;65567;55.684;37.570;2023-04-02T10:53:17;98703.78;;;13.56;50.19
70217;BME280;65567;55.684;37.570;2023-04-02T10:55:52;98714.66;;;14.00;48.79
70217;BME280;65567;55.684;37.570;2023-04-02T10:58:23;98716.44;;;14.24;48.64
70217;BME280;65567;55.684;37.570;2023-04-02T11:00:57;98713.19;;;14.56;47.94
70217;BME280;65567;55.684;37.570;2023-04-02T11:03:35;98716.72;;;14.32;48.45
70217;BME280;65567;55.684;37.570;2023-04-02T11:06:21;98711.13;;;14.12;48.59
70217;BME280;65567;55.684;37.570;2023-04-02T11:08:51;98711.53;;;13.95;48.79
70217;BME280;65567;55.684;37.570;2023-04-02T11:11:25;98728.63;;;13.89;49.24
70217;BME280;65567;55.684;37.570;2023-04-02T11:13:59;98711.94;;;13.77;49.60
70217;BME280;65567;55.684;37.570;2023-04-02T11:16:26;98701.63;;;13.98;49.28
70217;BME280;65567;55.684;37.570;2023-04-02T11:29:51;98703.66;;;14.30;48.56
70217;BME280;65567;55.684;37.570;2023-04-02T11:37:39;98708.66;;;13.98;48.53
70217;BME280;65567;55.684;37.570;2023-04-02T11:42:40;98708.53;;;14.24;48.13
70217;BME280;65567;55.684;37.570;2023-04-02T11:50:44;98713.50;;;14.04;48.45
70217;BME280;65567;55.684;37.570;2023-04-02T11:55:46;98700.81;;;14.09;48.38
70217;BME280;65567;55.684;37.570;2023-04-02T11:58:48;98707.28;;;14.05;48.39
70217;BME280;65567;55.684;37.570;2023-04-02T12:01:38;98715.94;;;13.70;49.32
70217;BME280;65567;55.684;37.570;2023-04-02T12:04:33;98721.94;;;14.20;48.16
70217;BME280;65567;55.684;37.570;2023-04-02T12:10:21;98713.28;;;14.07;48.29
70217;BME280;65567;55.684;37.570;2023-04-02T12:12:48;98723.66;;;14.33;48.04
70217;BME280;65567;55.684;37.570;2023-04-02T12:18:18;98717.69;;;13.82;49.08
70217;BME280;65567;55.684;37.570;2023-04-02T12:20:49;98711.75;;;14.16;48.26
70217;BME280;65567;55.684;37.570;2023-04-02T12:23:21;98715.19;;;14.41;47.74
70217;BME280;65567;55.684;37.570;2023-04-02T12:28:23;98704.06;;;14.13;48.55
70217;BME280;65567;55.684;37.570;2023-04-02T12:31:10;98713.88;;;14.11;48.69
70217;BME280;65567;55.684;37.570;2023-04-02T12:33:40;98721.75;;;14.35;47.95
70217;BME280;65567;55.684;37.570;2023-04-02T12:36:18;98723.44;;;14.36;47.49
70217;BME280;65567;55.684;37.570;2023-04-02T12:38:47;98720.72;;;14.13;48.11
70217;BME280;65567;55.684;37.570;2023-04-02T12:44:03;98716.25;;;14.38;47.63
70217;BME280;65567;55.684;37.570;2023-04-02T12:46:30;98715.34;;;14.50;47.55
70217;BME280;65567;55.684;37.570;2023-04-02T12:49:07;98712.88;;;14.25;47.79
70217;BME280;65567;55.684;37.570;2023-04-02T12:51:35;98714.75;;;14.23;47.87
70217;BME280;65567;55.684;37.570;2023-04-02T12:54:02;98724.59;;;14.20;48.01
70217;BME280;65567;55.684;37.570;2023-04-02T12:56:28;98714.03;;;14.20;48.10
70217;BME280;65567;55.684;37.570;2023-04-02T12:58:59;98711.72;;;14.04;48.12
70217;BME280;65567;55.684;37.570;2023-04-02T13:01:27;98712.41;;;14.42;47.61
70217;BME280;65567;55.684;37.570;2023-04-02T13:04:09;98726.66;;;14.40;47.54
70217;BME280;65567;55.684;37.570;2023-04-02T13:06:45;98720.06;;;14.34;47.47
70217;BME280;65567;55.684;37.570;2023-04-02T13:09:34;98722.25;;;14.64;46.76
70217;BME280;65567;55.684;37.570;2023-04-02T13:12:02;98722.31;;;14.51;46.78
70217;BME280;65567;55.684;37.570;2023-04-02T13:14:28;98728.84;;;14.34;47.03
70217;BME280;65567;55.684;37.570;2023-04-02T13:16:55;98726.47;;;14.18;47.86
70217;BME280;65567;55.684;37.570;2023-04-02T13:19:29;98724.94;;;14.63;46.52
70217;BME280;65567;55.684;37.570;2023-04-02T13:21:58;98731.03;;;14.52;47.01
70217;BME280;65567;55.684;37.570;2023-04-02T13:24:26;98717.81;;;14.65;46.41
70217;BME280;65567;55.684;37.570;2023-04-02T13:26:55;98734.38;;;14.43;46.90
70217;BME280;65567;55.684;37.570;2023-04-02T13:29:31;98726.09;;;14.47;46.75
70217;BME280;65567;55.684;37.570;2023-04-02T13:32:00;98727.56;;;14.63;46.52
70217;BME280;65567;55.684;37.570;2023-04-02T13:34:27;98726.38;;;14.56;46.35
70217;BME280;65567;55.684;37.570;2023-04-02T13:36:53;98730.97;;;14.65;46.21
70217;BME280;65567;55.684;37.570;2023-04-02T13:39:20;98730.69;;;14.57;46.36
70217;BME280;65567;55.684;37.570;2023-04-02T13:41:51;98730.16;;;14.40;46.97
70217;BME280;65567;55.684;37.570;2023-04-02T13:44:38;98730.47;;;14.00;47.79
70217;BME280;65567;55.684;37.570;2023-04-02T13:47:04;98713.84;;;14.35;47.06
70217;BME280;65567;55.684;37.570;2023-04-02T13:49:30;98725.50;;;14.44;46.70
70217;BME280;65567;55.684;37.570;2023-04-02T13:51:59;98724.44;;;14.46;46.70
70217;BME280;65567;55.684;37.570;2023-04-02T13:54:44;98729.72;;;14.46;46.60
70217;BME280;65567;55.684;37.570;2023-04-02T13:57:11;98728.22;;;14.42;46.99
70217;BME280;65567;55.684;37.570;2023-04-02T13:59:40;98718.34;;;14.57;46.16
70217;BME280;65567;55.684;37.570;2023-04-02T14:02:16;98734.84;;;14.83;45.90
70217;BME280;65567;55.684;37.570;2023-04-02T14:04:53;98725.38;;;14.81;45.87
70217;BME280;65567;55.684;37.570;2023-04-02T14:45:13;98728.53;;;14.50;45.83
70217;BME280;65567;55.684;37.570;2023-04-02T14:47:49;98721.31;;;14.41;46.28
70217;BME280;65567;55.684;37.570;2023-04-02T14:50:21;98718.38;;;14.21;46.91
70217;BME280;65567;55.684;37.570;2023-04-02T14:52:56;98721.22;;;14.18;46.81
70217;BME280;65567;55.684;37.570;2023-04-02T14:55:25;98725.47;;;14.08;47.13
70217;BME280;65567;55.684;37.570;2023-04-02T14:57:53;98728.59;;;14.13;47.22
70217;BME280;65567;55.684;37.570;2023-04-02T15:05:58;98726.09;;;14.12;47.41
70217;BME280;65567;55.684;37.570;2023-04-02T15:08:37;98725.22;;;14.00;47.70
70217;BME280;65567;55.684;37.570;2023-04-02T15:13:44;98720.94;;;14.34;46.59
70217;BME280;65567;55.684;37.570;2023-04-02T15:16:17;98725.91;;;14.26;47.21
70217;BME280;65567;55.684;37.570;2023-04-02T15:18:44;98732.06;;;14.38;47.10
70217;BME280;65567;55.684;37.570;2023-04-02T15:24:07;98727.94;;;14.23;47.22
70217;BME280;65567;55.684;37.570;2023-04-02T15:35:09;98728.72;;;14.36;47.23
70217;BME280;65567;55.684;37.570;2023-04-02T15:37:57;98734.69;;;14.27;47.57
70217;BME280;65567;55.684;37.570;2023-04-02T15:40:38;98729.78;;;14.33;47.22
70217;BME280;65567;55.684;37.570;2023-04-02T15:50:53;98744.06;;;13.94;48.43
70217;BME280;65567;55.684;37.570;2023-04-02T15:56:25;98735.97;;;13.97;48.29
70217;BME280;65567;55.684;37.570;2023-04-02T16:05:30;98744.69;;;13.97;48.51
70217;BME280;65567;55.684;37.570;2023-04-02T16:08:59;98746.28;;;14.00;48.42
70217;BME280;65567;55.684;37.570;2023-04-02T16:11:09;98751.59;;;14.11;48.00
70217;BME280;65567;55.684;37.570;2023-04-02T16:13:39;98754.84;;;13.91;48.78
70217;BME280;65567;55.684;37.570;2023-04-02T16:16:13;98763.47;;;13.93;48.66
70217;BME280;65567;55.684;37.570;2023-04-02T16:21:06;98764.31;;;13.93;48.72
70217;BME280;65567;55.684;37.570;2023-04-02T16:23:34;98762.50;;;13.94;48.91
70217;BME280;65567;55.684;37.570;2023-04-02T16:34:58;98772.97;;;13.82;48.82
70217;BME280;65567;55.684;37.570;2023-04-02T16:40:03;98781.59;;;13.47;49.73
70217;BME280;65567;55.684;37.570;2023-04-02T16:42:50;98779.56;;;13.51;49.93
70217;BME280;65567;55.684;37.570;2023-04-02T17:09:34;98789.19;;;14.13;48.14
70217;BME280;65567;55.684;37.570;2023-04-02T17:12:11;98792.28;;;14.07;48.26
70217;BME280;65567;55.684;37.570;2023-04-02T17:14:50;98788.63;;;13.97;48.51
70217;BME280;65567;55.684;37.570;2023-04-02T17:17:19;98791.28;;;13.97;48.66
70217;BME280;65567;55.684;37.570;2023-04-02T17:19:47;98796.31;;;14.00;48.66
70217;BME280;65567;55.684;37.570;2023-04-02T17:22:21;98795.19;;;14.15;47.97